sensor_id;sensor_type;location;lat;lon;timestamp;pressure;altitude;pressure_sealevel;temperature;humidity
57900;BME280;60605;53.716;19.940;2022-10-17T00:03:47;101164.91;;;10.14;100.00
57900;BME280;60605;53.716;19.940;2022-10-17T00:08:51;101159.30;;;10.04;100.00
57900;BME280;60605;53.716;19.940;2022-10-17T00:13:55;101163.59;;;9.94;100.00
57900;BME280;60605;53.716;19.940;2022-10-17T00:18:59;101170.81;;;9.84;100.00
57900;BME280;60605;53.716;19.940;2022-10-17T00:24:03;101170.79;;;9.76;100.00
57900;BME280;60605;53.716;19.940;2022-10-17T00:29:06;101168.16;;;9.67;100.00
57900;BME280;60605;53.716;19.940;2022-10-17T00:34:09;101167.95;;;9.58;100.00
57900;BME280;60605;53.716;19.940;2022-10-17T00:39:12;101169.61;;;9.51;100.00
57900;BME280;60605;53.716;19.940;2022-10-17T00:49:33;101173.11;;;9.41;100.00
57900;BME280;60605;53.716;19.940;2022-10-17T00:54:43;101177.80;;;9.36;100.00
57900;BME280;60605;53.716;19.940;2022-10-17T00:59:50;101185.34;;;9.29;100.00
57900;BME280;60605;53.716;19.940;2022-10-17T01:04:55;101173.20;;;9.20;100.00
57900;BME280;60605;53.716;19.940;2022-10-17T01:10:01;101172.36;;;9.13;100.00
57900;BME280;60605;53.716;19.940;2022-10-17T01:21:24;101173.02;;;8.98;100.00
57900;BME280;60605;53.716;19.940;2022-10-17T01:32:02;101184.63;;;8.88;100.00
57900;BME280;60605;53.716;19.940;2022-10-17T01:37:19;101191.99;;;8.85;100.00
57900;BME280;60605;53.716;19.940;2022-10-17T01:42:35;101194.64;;;8.81;100.00
57900;BME280;60605;53.716;19.940;2022-10-17T01:47:41;101199.39;;;8.77;100.00
57900;BME280;60605;53.716;19.940;2022-10-17T01:52:48;101208.77;;;8.74;100.00
57900;BME280;60605;53.716;19.940;2022-10-17T01:57:56;101213.45;;;8.71;100.00
57900;BME280;60605;53.716;19.940;2022-10-17T02:03:08;101231.17;;;8.70;100.00
57900;BME280;60605;53.716;19.940;2022-10-17T02:08:12;101243.39;;;8.66;100.00
57900;BME280;60605;53.716;19.940;2022-10-17T02:29:18;101253.89;;;8.55;100.00
57900;BME280;60605;53.716;19.940;2022-10-17T02:34:31;101264.37;;;8.52;100.00
57900;BME280;60605;53.716;19.940;2022-10-17T02:39:37;101262.13;;;8.47;100.00
57900;BME280;60605;53.716;19.940;2022-10-17T02:44:43;101260.39;;;8.42;100.00
57900;BME280;60605;53.716;19.940;2022-10-17T02:49:52;101269.70;;;8.39;100.00
57900;BME280;60605;53.716;19.940;2022-10-17T03:00:05;101274.55;;;8.34;100.00
57900;BME280;60605;53.716;19.940;2022-10-17T03:05:11;101285.61;;;8.33;100.00
57900;BME280;60605;53.716;19.940;2022-10-17T03:10:15;101286.44;;;8.32;100.00
57900;BME280;60605;53.716;19.940;2022-10-17T03:15:18;101292.68;;;8.32;100.00
57900;BME280;60605;53.716;19.940;2022-10-17T03:20:22;101301.05;;;8.34;100.00
57900;BME280;60605;53.716;19.940;2022-10-17T03:25:25;101302.26;;;8.34;100.00
57900;BME280;60605;53.716;19.940;2022-10-17T03:30:28;101301.40;;;8.36;100.00
57900;BME280;60605;53.716;19.940;2022-10-17T03:35:32;101304.71;;;8.40;100.00
57900;BME280;60605;53.716;19.940;2022-10-17T03:40:35;101299.38;;;8.42;100.00
57900;BME280;60605;53.716;19.940;2022-10-17T03:45:38;101308.88;;;8.43;100.00
57900;BME280;60605;53.716;19.940;2022-10-17T03:50:41;101317.14;;;8.45;100.00
57900;BME280;60605;53.716;19.940;2022-10-17T03:55:44;101323.02;;;8.45;100.00
57900;BME280;60605;53.716;19.940;2022-10-17T04:00:47;101323.44;;;8.41;100.00
57900;BME280;60605;53.716;19.940;2022-10-17T04:05:51;101325.19;;;8.37;100.00
57900;BME280;60605;53.716;19.940;2022-10-17T04:10:58;101326.61;;;8.32;100.00
57900;BME280;60605;53.716;19.940;2022-10-17T04:16:09;101329.21;;;8.29;100.00
57900;BME280;60605;53.716;19.940;2022-10-17T04:21:12;101334.86;;;8.26;100.00
57900;BME280;60605;53.716;19.940;2022-10-17T04:26:15;101343.43;;;8.26;100.00
57900;BME280;60605;53.716;19.940;2022-10-17T04:31:19;101344.39;;;8.25;100.00
57900;BME280;60605;53.716;19.940;2022-10-17T04:36:23;101350.63;;;8.23;100.00
57900;BME280;60605;53.716;19.940;2022-10-17T04:41:26;101344.65;;;8.19;100.00
57900;BME280;60605;53.716;19.940;2022-10-17T04:46:29;101349.20;;;8.15;100.00
57900;BME280;60605;53.716;19.940;2022-10-17T04:51:32;101356.32;;;8.13;100.00
57900;BME280;60605;53.716;19.940;2022-10-17T04:56:35;101368.82;;;8.12;100.00
57900;BME280;60605;53.716;19.940;2022-10-17T05:01:39;101368.32;;;8.12;100.00
57900;BME280;60605;53.716;19.940;2022-10-17T05:06:42;101370.25;;;8.15;100.00
57900;BME280;60605;53.716;19.940;2022-10-17T05:11:45;101366.68;;;8.20;100.00
57900;BME280;60605;53.716;19.940;2022-10-17T05:16:48;101362.86;;;8.26;100.00
57900;BME280;60605;53.716;19.940;2022-10-17T05:21:51;101370.84;;;8.31;100.00
57900;BME280;60605;53.716;19.940;2022-10-17T05:26:55;101369.63;;;8.36;100.00
57900;BME280;60605;53.716;19.940;2022-10-17T05:31:58;101369.38;;;8.39;100.00
57900;BME280;60605;53.716;19.940;2022-10-17T05:37:06;101381.15;;;8.48;100.00
57900;BME280;60605;53.716;19.940;2022-10-17T05:42:10;101387.30;;;8.56;100.00
57900;BME280;60605;53.716;19.940;2022-10-17T05:47:13;101382.04;;;8.65;100.00
57900;BME280;60605;53.716;19.940;2022-10-17T05:52:16;101389.09;;;8.78;100.00
57900;BME280;60605;53.716;19.940;2022-10-17T05:57:19;101391.95;;;9.01;100.00
57900;BME280;60605;53.716;19.940;2022-10-17T06:02:22;101394.92;;;9.25;100.00
57900;BME280;60605;53.716;19.940;2022-10-17T06:07:26;101407.34;;;9.70;100.00
57900;BME280;60605;53.716;19.940;2022-10-17T06:12:29;101410.17;;;10.39;100.00
57900;BME280;60605;53.716;19.940;2022-10-17T06:17:32;101415.12;;;10.71;100.00
57900;BME280;60605;53.716;19.940;2022-10-17T06:22:35;101419.62;;;10.85;100.00
57900;BME280;60605;53.716;19.940;2022-10-17T06:27:39;101420.09;;;11.20;100.00
57900;BME280;60605;53.716;19.940;2022-10-17T06:32:42;101417.85;;;11.77;100.00
57900;BME280;60605;53.716;19.940;2022-10-17T06:37:45;101418.16;;;12.89;100.00
57900;BME280;60605;53.716;19.940;2022-10-17T06:42:49;101421.23;;;15.09;100.00
57900;BME280;60605;53.716;19.940;2022-10-17T06:47:52;101430.78;;;17.34;99.02
57900;BME280;60605;53.716;19.940;2022-10-17T06:52:55;101442.43;;;18.25;93.75
57900;BME280;60605;53.716;19.940;2022-10-17T06:57:58;101451.80;;;17.94;91.24
57900;BME280;60605;53.716;19.940;2022-10-17T07:03:02;101455.11;;;17.45;90.30
57900;BME280;60605;53.716;19.940;2022-10-17T07:08:05;101464.68;;;17.13;90.31
57900;BME280;60605;53.716;19.940;2022-10-17T07:13:08;101473.14;;;16.49;90.88
57900;BME280;60605;53.716;19.940;2022-10-17T07:18:12;101468.02;;;15.70;92.19
57900;BME280;60605;53.716;19.940;2022-10-17T07:23:16;101472.47;;;15.05;93.89
57900;BME280;60605;53.716;19.940;2022-10-17T07:28:19;101472.27;;;14.55;95.69
57900;BME280;60605;53.716;19.940;2022-10-17T07:33:22;101470.04;;;14.17;97.55
57900;BME280;60605;53.716;19.940;2022-10-17T07:38:26;101478.77;;;14.06;99.30
57900;BME280;60605;53.716;19.940;2022-10-17T07:43:30;101468.98;;;14.16;99.96
57900;BME280;60605;53.716;19.940;2022-10-17T07:48:33;101468.63;;;14.26;99.73
57900;BME280;60605;53.716;19.940;2022-10-17T07:53:37;101468.34;;;14.26;100.00
57900;BME280;60605;53.716;19.940;2022-10-17T07:58:45;101478.60;;;14.29;100.00
57900;BME280;60605;53.716;19.940;2022-10-17T08:03:51;101483.77;;;14.98;100.00
57900;BME280;60605;53.716;19.940;2022-10-17T08:08:54;101488.48;;;17.78;95.74
57900;BME280;60605;53.716;19.940;2022-10-17T08:13:57;101489.39;;;18.32;91.53
57900;BME280;60605;53.716;19.940;2022-10-17T08:19:02;101494.95;;;17.91;89.34
57900;BME280;60605;53.716;19.940;2022-10-17T08:24:05;101484.46;;;17.44;90.96
57900;BME280;60605;53.716;19.940;2022-10-17T08:29:13;101479.43;;;17.19;92.59
57900;BME280;60605;53.716;19.940;2022-10-17T08:34:17;101476.44;;;17.31;92.99
57900;BME280;60605;53.716;19.940;2022-10-17T08:39:20;101475.10;;;17.57;92.09
57900;BME280;60605;53.716;19.940;2022-10-17T08:49:53;101490.61;;;17.82;90.28
57900;BME280;60605;53.716;19.940;2022-10-17T08:54:58;101477.39;;;18.91;88.65
57900;BME280;60605;53.716;19.940;2022-10-17T09:00:01;101473.69;;;22.48;79.26
57900;BME280;60605;53.716;19.940;2022-10-17T09:05:22;101479.20;;;26.37;70.29
57900;BME280;60605;53.716;19.940;2022-10-17T09:15:59;101490.19;;;33.14;53.80
57900;BME280;60605;53.716;19.940;2022-10-17T09:21:29;101493.09;;;35.09;46.24
57900;BME280;60605;53.716;19.940;2022-10-17T09:26:37;101482.80;;;35.97;43.05
57900;BME280;60605;53.716;19.940;2022-10-17T09:31:46;101475.45;;;36.59;40.07
57900;BME280;60605;53.716;19.940;2022-10-17T09:36:51;101471.61;;;37.10;37.78
57900;BME280;60605;53.716;19.940;2022-10-17T09:41:57;101473.88;;;37.24;36.90
57900;BME280;60605;53.716;19.940;2022-10-17T09:52:34;101465.27;;;36.24;35.92
57900;BME280;60605;53.716;19.940;2022-10-17T10:08:18;101445.58;;;27.65;47.44
57900;BME280;60605;53.716;19.940;2022-10-17T10:13:25;101436.90;;;25.82;49.95
57900;BME280;60605;53.716;19.940;2022-10-17T10:18:34;101425.21;;;24.57;53.03
57900;BME280;60605;53.716;19.940;2022-10-17T10:23:43;101412.65;;;23.77;55.88
57900;BME280;60605;53.716;19.940;2022-10-17T10:34:35;101397.98;;;22.86;58.77
57900;BME280;60605;53.716;19.940;2022-10-17T10:39:44;101403.13;;;22.37;59.74
57900;BME280;60605;53.716;19.940;2022-10-17T10:44:50;101404.48;;;21.95;61.38
57900;BME280;60605;53.716;19.940;2022-10-17T10:55:26;101399.51;;;21.71;64.17
57900;BME280;60605;53.716;19.940;2022-10-17T11:00:33;101394.80;;;21.74;64.38
57900;BME280;60605;53.716;19.940;2022-10-17T11:05:43;101390.80;;;21.63;64.35
57900;BME280;60605;53.716;19.940;2022-10-17T11:11:01;101392.13;;;21.60;65.56
57900;BME280;60605;53.716;19.940;2022-10-17T11:16:36;101391.91;;;21.64;66.13
57900;BME280;60605;53.716;19.940;2022-10-17T11:27:03;101377.08;;;21.83;66.31
57900;BME280;60605;53.716;19.940;2022-10-17T11:32:20;101366.34;;;21.90;66.30
57900;BME280;60605;53.716;19.940;2022-10-17T11:37:33;101371.19;;;22.04;66.84
57900;BME280;60605;53.716;19.940;2022-10-17T11:42:54;101361.78;;;22.18;67.20
57900;BME280;60605;53.716;19.940;2022-10-17T11:48:03;101352.15;;;22.23;67.17
57900;BME280;60605;53.716;19.940;2022-10-17T11:53:24;101340.36;;;22.18;67.73
57900;BME280;60605;53.716;19.940;2022-10-17T11:58:38;101333.62;;;22.15;68.52
57900;BME280;60605;53.716;19.940;2022-10-17T12:20:31;101326.63;;;22.18;71.25
57900;BME280;60605;53.716;19.940;2022-10-17T12:25:35;101319.71;;;22.08;71.74
57900;BME280;60605;53.716;19.940;2022-10-17T12:46:44;101304.64;;;22.16;74.58
57900;BME280;60605;53.716;19.940;2022-10-17T12:52:24;101305.34;;;22.54;74.15
57900;BME280;60605;53.716;19.940;2022-10-17T13:02:53;101302.86;;;22.48;73.13
57900;BME280;60605;53.716;19.940;2022-10-17T13:07:58;101304.90;;;22.38;73.65
57900;BME280;60605;53.716;19.940;2022-10-17T13:18:21;101301.38;;;22.28;74.80
57900;BME280;60605;53.716;19.940;2022-10-17T13:23:33;101302.61;;;22.21;75.17
57900;BME280;60605;53.716;19.940;2022-10-17T13:28:37;101297.12;;;22.08;75.52
57900;BME280;60605;53.716;19.940;2022-10-17T13:33:41;101293.20;;;21.87;75.89
57900;BME280;60605;53.716;19.940;2022-10-17T13:38:45;101296.05;;;21.65;76.68
57900;BME280;60605;53.716;19.940;2022-10-17T13:43:50;101281.34;;;21.46;77.42
57900;BME280;60605;53.716;19.940;2022-10-17T13:48:53;101263.11;;;21.30;78.34
57900;BME280;60605;53.716;19.940;2022-10-17T13:53:56;101244.14;;;21.19;79.04
57900;BME280;60605;53.716;19.940;2022-10-17T13:59:07;101244.70;;;21.11;79.65
57900;BME280;60605;53.716;19.940;2022-10-17T14:04:20;101248.95;;;21.03;80.26
57900;BME280;60605;53.716;19.940;2022-10-17T14:09:26;101238.61;;;21.03;80.45
57900;BME280;60605;53.716;19.940;2022-10-17T14:14:30;101222.04;;;21.05;80.70
57900;BME280;60605;53.716;19.940;2022-10-17T14:19:54;101220.64;;;21.01;80.93
57900;BME280;60605;53.716;19.940;2022-10-17T14:25:47;101213.66;;;20.95;81.26
57900;BME280;60605;53.716;19.940;2022-10-17T14:30:52;101216.13;;;20.93;81.45
57900;BME280;60605;53.716;19.940;2022-10-17T14:36:00;101224.41;;;20.86;81.52
57900;BME280;60605;53.716;19.940;2022-10-17T14:41:09;101227.66;;;20.75;81.65
57900;BME280;60605;53.716;19.940;2022-10-17T14:46:35;101224.31;;;20.56;81.91
57900;BME280;60605;53.716;19.940;2022-10-17T14:51:39;101221.85;;;20.38;82.46
57900;BME280;60605;53.716;19.940;2022-10-17T15:02:26;101218.42;;;20.01;83.66
57900;BME280;60605;53.716;19.940;2022-10-17T15:07:31;101214.49;;;19.82;84.25
57900;BME280;60605;53.716;19.940;2022-10-17T15:12:35;101218.41;;;19.63;84.87
57900;BME280;60605;53.716;19.940;2022-10-17T15:17:38;101220.16;;;19.45;85.47
57900;BME280;60605;53.716;19.940;2022-10-17T15:22:42;101212.35;;;19.26;86.07
57900;BME280;60605;53.716;19.940;2022-10-17T15:27:45;101209.89;;;19.08;86.39
57900;BME280;60605;53.716;19.940;2022-10-17T15:32:49;101208.59;;;18.89;86.92
57900;BME280;60605;53.716;19.940;2022-10-17T15:37:53;101213.10;;;18.67;87.53
57900;BME280;60605;53.716;19.940;2022-10-17T15:42:56;101209.58;;;18.47;88.42
57900;BME280;60605;53.716;19.940;2022-10-17T15:48:04;101216.61;;;18.30;89.32
57900;BME280;60605;53.716;19.940;2022-10-17T15:53:12;101214.23;;;18.12;90.16
57900;BME280;60605;53.716;19.940;2022-10-17T15:58:17;101209.23;;;17.95;91.45
57900;BME280;60605;53.716;19.940;2022-10-17T16:03:21;101211.40;;;17.81;92.13
57900;BME280;60605;53.716;19.940;2022-10-17T16:08:25;101205.71;;;17.68;92.56
57900;BME280;60605;53.716;19.940;2022-10-17T16:13:28;101205.09;;;17.54;92.78
57900;BME280;60605;53.716;19.940;2022-10-17T16:18:33;101199.15;;;17.41;93.39
57900;BME280;60605;53.716;19.940;2022-10-17T16:23:37;101199.27;;;17.29;93.62
57900;BME280;60605;53.716;19.940;2022-10-17T16:28:43;101206.77;;;17.16;93.80
57900;BME280;60605;53.716;19.940;2022-10-17T16:33:50;101201.38;;;17.03;94.11
57900;BME280;60605;53.716;19.940;2022-10-17T16:38:55;101196.17;;;16.93;94.95
57900;BME280;60605;53.716;19.940;2022-10-17T16:44:01;101198.02;;;16.85;95.28
57900;BME280;60605;53.716;19.940;2022-10-17T16:49:06;101194.88;;;16.75;95.45
57900;BME280;60605;53.716;19.940;2022-10-17T16:54:10;101189.48;;;16.67;95.74
57900;BME280;60605;53.716;19.940;2022-10-17T16:59:13;101181.33;;;16.58;95.89
57900;BME280;60605;53.716;19.940;2022-10-17T17:04:17;101178.06;;;16.48;96.22
57900;BME280;60605;53.716;19.940;2022-10-17T17:09:21;101177.21;;;16.40;96.72
57900;BME280;60605;53.716;19.940;2022-10-17T17:14:24;101177.37;;;16.33;97.19
57900;BME280;60605;53.716;19.940;2022-10-17T17:19:29;101170.58;;;16.33;98.31
57900;BME280;60605;53.716;19.940;2022-10-17T17:24:32;101165.44;;;16.37;98.48
57900;BME280;60605;53.716;19.940;2022-10-17T17:29:36;101158.58;;;16.40;98.78
57900;BME280;60605;53.716;19.940;2022-10-17T17:34:40;101157.96;;;16.44;99.05
57900;BME280;60605;53.716;19.940;2022-10-17T17:39:44;101158.59;;;16.55;99.71
57900;BME280;60605;53.716;19.940;2022-10-17T17:44:48;101155.14;;;16.68;99.69
57900;BME280;60605;53.716;19.940;2022-10-17T17:49:52;101155.77;;;16.83;99.73
57900;BME280;60605;53.716;19.940;2022-10-17T17:54:55;101152.58;;;16.97;98.92
57900;BME280;60605;53.716;19.940;2022-10-17T17:59:58;101151.76;;;17.03;98.01
57900;BME280;60605;53.716;19.940;2022-10-17T18:05:01;101147.52;;;17.02;97.78
57900;BME280;60605;53.716;19.940;2022-10-17T18:10:06;101132.63;;;17.01;97.91
57900;BME280;60605;53.716;19.940;2022-10-17T18:15:11;101122.66;;;17.01;97.95
57900;BME280;60605;53.716;19.940;2022-10-17T18:20:15;101123.70;;;17.05;98.00
57900;BME280;60605;53.716;19.940;2022-10-17T18:25:19;101125.66;;;17.11;97.88
57900;BME280;60605;53.716;19.940;2022-10-17T18:30:22;101126.96;;;17.18;97.63
57900;BME280;60605;53.716;19.940;2022-10-17T18:35:33;101125.05;;;17.24;97.21
57900;BME280;60605;53.716;19.940;2022-10-17T18:40:37;101122.26;;;17.25;96.66
57900;BME280;60605;53.716;19.940;2022-10-17T18:45:43;101120.03;;;17.24;96.65
57900;BME280;60605;53.716;19.940;2022-10-17T18:50:46;101114.38;;;17.24;96.52
57900;BME280;60605;53.716;19.940;2022-10-17T18:55:50;101114.92;;;17.24;96.24
57900;BME280;60605;53.716;19.940;2022-10-17T19:00:53;101118.80;;;17.22;96.04
57900;BME280;60605;53.716;19.940;2022-10-17T19:06:06;101111.56;;;17.19;96.05
57900;BME280;60605;53.716;19.940;2022-10-17T19:11:13;101104.80;;;17.16;96.10
57900;BME280;60605;53.716;19.940;2022-10-17T19:16:23;101094.02;;;17.10;96.13
57900;BME280;60605;53.716;19.940;2022-10-17T19:21:26;101089.95;;;17.06;96.49
57900;BME280;60605;53.716;19.940;2022-10-17T19:26:32;101081.64;;;17.06;96.78
57900;BME280;60605;53.716;19.940;2022-10-17T19:31:37;101079.02;;;17.07;96.75
57900;BME280;60605;53.716;19.940;2022-10-17T19:36:42;101079.95;;;17.04;96.52
57900;BME280;60605;53.716;19.940;2022-10-17T19:41:47;101081.14;;;16.98;96.69
57900;BME280;60605;53.716;19.940;2022-10-17T19:46:51;101082.95;;;16.95;96.91
57900;BME280;60605;53.716;19.940;2022-10-17T19:51:55;101079.73;;;16.91;97.45
57900;BME280;60605;53.716;19.940;2022-10-17T19:56:59;101074.63;;;16.92;97.83
57900;BME280;60605;53.716;19.940;2022-10-17T20:02:03;101070.83;;;16.93;98.10
57900;BME280;60605;53.716;19.940;2022-10-17T20:07:07;101067.77;;;16.96;97.63
57900;BME280;60605;53.716;19.940;2022-10-17T20:12:11;101062.77;;;16.93;97.49
57900;BME280;60605;53.716;19.940;2022-10-17T20:17:14;101058.39;;;16.88;97.88
57900;BME280;60605;53.716;19.940;2022-10-17T20:22:19;101064.51;;;16.90;98.16
57900;BME280;60605;53.716;19.940;2022-10-17T20:27:23;101053.80;;;16.91;97.85
57900;BME280;60605;53.716;19.940;2022-10-17T20:32:31;101048.17;;;16.89;97.82
57900;BME280;60605;53.716;19.940;2022-10-17T20:37:41;101048.40;;;16.92;97.89
57900;BME280;60605;53.716;19.940;2022-10-17T20:42:45;101052.79;;;16.95;97.56
57900;BME280;60605;53.716;19.940;2022-10-17T20:47:49;101046.60;;;16.94;97.32
57900;BME280;60605;53.716;19.940;2022-10-17T20:52:55;101046.94;;;16.92;97.34
57900;BME280;60605;53.716;19.940;2022-10-17T20:58:19;101044.54;;;16.91;97.07
57900;BME280;60605;53.716;19.940;2022-10-17T21:03:22;101044.48;;;16.85;96.68
57900;BME280;60605;53.716;19.940;2022-10-17T21:08:26;101043.36;;;16.76;96.85
57900;BME280;60605;53.716;19.940;2022-10-17T21:13:29;101047.00;;;16.67;96.63
57900;BME280;60605;53.716;19.940;2022-10-17T21:18:33;101044.73;;;16.55;97.05
57900;BME280;60605;53.716;19.940;2022-10-17T21:23:36;101043.69;;;16.45;97.33
57900;BME280;60605;53.716;19.940;2022-10-17T21:28:41;101046.00;;;16.37;97.46
57900;BME280;60605;53.716;19.940;2022-10-17T21:33:47;101039.95;;;16.29;97.69
57900;BME280;60605;53.716;19.940;2022-10-17T21:38:52;101041.11;;;16.18;98.03
57900;BME280;60605;53.716;19.940;2022-10-17T21:44:02;101044.48;;;16.09;98.55
57900;BME280;60605;53.716;19.940;2022-10-17T21:49:06;101042.09;;;16.00;98.53
57900;BME280;60605;53.716;19.940;2022-10-17T21:54:10;101044.48;;;15.90;98.77
57900;BME280;60605;53.716;19.940;2022-10-17T21:59:13;101041.26;;;15.80;99.26
57900;BME280;60605;53.716;19.940;2022-10-17T22:04:17;101029.11;;;15.72;99.84
57900;BME280;60605;53.716;19.940;2022-10-17T22:09:23;101029.83;;;15.68;99.98
57900;BME280;60605;53.716;19.940;2022-10-17T22:14:26;101035.48;;;15.62;99.98
57900;BME280;60605;53.716;19.940;2022-10-17T22:19:30;101036.61;;;15.55;100.00
57900;BME280;60605;53.716;19.940;2022-10-17T22:24:33;101030.05;;;15.49;100.00
57900;BME280;60605;53.716;19.940;2022-10-17T22:29:36;101031.96;;;15.43;100.00
57900;BME280;60605;53.716;19.940;2022-10-17T22:34:41;101032.55;;;15.34;100.00
57900;BME280;60605;53.716;19.940;2022-10-17T22:39:44;101028.36;;;15.26;100.00
57900;BME280;60605;53.716;19.940;2022-10-17T22:44:47;101025.87;;;15.19;100.00
57900;BME280;60605;53.716;19.940;2022-10-17T22:49:51;101023.61;;;15.17;100.00
57900;BME280;60605;53.716;19.940;2022-10-17T22:54:54;101022.79;;;15.13;100.00
57900;BME280;60605;53.716;19.940;2022-10-17T22:59:57;101024.92;;;15.08;100.00
57900;BME280;60605;53.716;19.940;2022-10-17T23:05:01;101022.30;;;15.03;100.00
57900;BME280;60605;53.716;19.940;2022-10-17T23:10:05;101019.10;;;14.97;100.00
57900;BME280;60605;53.716;19.940;2022-10-17T23:15:09;101016.03;;;14.91;100.00
57900;BME280;60605;53.716;19.940;2022-10-17T23:20:12;101017.69;;;14.84;100.00
57900;BME280;60605;53.716;19.940;2022-10-17T23:25:15;101017.76;;;14.76;100.00
57900;BME280;60605;53.716;19.940;2022-10-17T23:30:19;101017.69;;;14.69;100.00
57900;BME280;60605;53.716;19.940;2022-10-17T23:35:22;101021.12;;;14.62;100.00
57900;BME280;60605;53.716;19.940;2022-10-17T23:40:25;101019.86;;;14.57;100.00
57900;BME280;60605;53.716;19.940;2022-10-17T23:45:29;101012.45;;;14.52;100.00
57900;BME280;60605;53.716;19.940;2022-10-17T23:50:38;101008.91;;;14.48;100.00
57900;BME280;60605;53.716;19.940;2022-10-17T23:55:41;101012.33;;;14.44;100.00
